Time;durP1;ratioP1;P1;durP2;ratioP2;P2;SDS_P1;SDS_P2;PMS_P1;PMS_P2;Temp;Humidity;BMP_temperature;BMP_pressure;BME280_temperature;BME280_humidity;BME280_pressure;Samples;Min_cycle;Max_cycle;Signal;HPM_P1;HPM_P2
2023/04/20 00:01:37;;;;;;;4.60;3.45;;;8.90;99.90;;;;;;5003811;28;20049;-75
2023/04/20 00:04:04;;;;;;;4.22;3.28;;;8.90;99.90;;;;;;5001686;28;20510;-75
2023/04/20 00:06:33;;;;;;;4.18;3.72;;;8.80;99.90;;;;;;5006667;28;20045;-75
2023/04/20 00:09:00;;;;;;;7.60;4.15;;;8.80;99.90;;;;;;5005437;28;20048;-75
2023/04/20 00:11:27;;;;;;;6.53;4.20;;;8.80;99.90;;;;;;5005636;28;20038;-75
2023/04/20 00:13:53;;;;;;;4.72;3.78;;;8.80;99.90;;;;;;5007345;28;20081;-75
2023/04/20 00:16:20;;;;;;;3.83;3.42;;;8.80;99.90;;;;;;5002263;28;20074;-75
2023/04/20 00:18:47;;;;;;;6.13;3.97;;;8.80;99.90;;;;;;5005831;28;20046;-75
2023/04/20 00:21:14;;;;;;;5.60;4.05;;;8.80;99.90;;;;;;5007711;28;20054;-75
2023/04/20 00:23:41;;;;;;;5.60;4.07;;;8.70;99.90;;;;;;4999925;28;20050;-75
2023/04/20 00:26:07;;;;;;;6.22;4.03;;;8.80;99.90;;;;;;5007715;28;20585;-75
2023/04/20 00:28:34;;;;;;;6.35;4.25;;;8.80;99.90;;;;;;5000858;28;20129;-75
2023/04/20 00:31:01;;;;;;;5.10;4.15;;;8.80;99.90;;;;;;5000028;28;20050;-75
2023/04/20 00:33:27;;;;;;;5.28;3.78;;;8.80;99.90;;;;;;5000082;28;20043;-76
2023/04/20 00:35:55;;;;;;;6.38;3.90;;;8.80;99.90;;;;;;5001073;28;20118;-75
2023/04/20 00:38:22;;;;;;;5.07;3.67;;;8.80;99.90;;;;;;5001092;28;20137;-75
2023/04/20 00:40:52;;;;;;;4.47;3.83;;;8.80;99.90;;;;;;5003963;28;20136;-75
2023/04/20 00:43:19;;;;;;;4.22;3.40;;;8.80;99.90;;;;;;5005937;28;20054;-75
2023/04/20 00:45:46;;;;;;;4.90;3.80;;;8.80;99.90;;;;;;5012005;28;20133;-75
2023/04/20 00:48:13;;;;;;;4.75;3.92;;;8.80;99.90;;;;;;5006830;28;20046;-75
2023/04/20 00:50:40;;;;;;;4.85;4.15;;;8.80;99.90;;;;;;5004124;28;20042;-75
2023/04/20 00:53:07;;;;;;;5.35;4.15;;;8.80;99.90;;;;;;5003854;28;20560;-75
2023/04/20 00:55:36;;;;;;;9.30;4.32;;;8.80;99.90;;;;;;5007424;28;20045;-75
2023/04/20 00:58:03;;;;;;;6.60;4.10;;;8.80;99.90;;;;;;5001889;28;20142;-75
2023/04/20 01:00:30;;;;;;;4.45;3.60;;;8.80;99.90;;;;;;5005755;28;20057;-75
2023/04/20 01:02:56;;;;;;;7.45;4.68;;;8.80;99.90;;;;;;4999114;28;20078;-75
2023/04/20 01:05:24;;;;;;;6.10;4.53;;;8.70;99.90;;;;;;5005260;28;20398;-75
2023/04/20 01:07:51;;;;;;;5.93;4.40;;;8.70;99.90;;;;;;4998845;28;20564;-75
2023/04/20 01:10:18;;;;;;;4.72;4.25;;;8.70;99.90;;;;;;4998505;28;20487;-75
2023/04/20 01:12:44;;;;;;;6.70;4.70;;;8.70;99.90;;;;;;5000771;28;20133;-75
2023/04/20 01:15:11;;;;;;;6.00;4.80;;;8.70;99.90;;;;;;5004815;28;20088;-75
2023/04/20 01:17:38;;;;;;;6.90;4.38;;;8.70;99.90;;;;;;5005754;28;20088;-75
2023/04/20 01:20:13;;;;;;;6.47;4.32;;;8.70;99.90;;;;;;5004968;28;20068;-77
2023/04/20 01:22:49;;;;;;;5.68;4.38;;;8.70;99.90;;;;;;5004818;28;20053;-75
2023/04/20 01:25:17;;;;;;;5.97;4.93;;;8.70;99.90;;;;;;5006390;28;20082;-75
2023/04/20 01:27:43;;;;;;;7.82;4.72;;;8.70;99.90;;;;;;5002156;28;20050;-75
2023/04/20 01:30:11;;;;;;;7.38;4.97;;;8.70;99.90;;;;;;5006497;28;20054;-75
2023/04/20 01:32:39;;;;;;;7.55;5.18;;;8.70;99.90;;;;;;5003303;28;20053;-76
2023/04/20 01:35:07;;;;;;;5.43;4.65;;;8.70;99.90;;;;;;5005845;28;20050;-75
2023/04/20 01:37:34;;;;;;;8.15;4.97;;;8.70;99.90;;;;;;5000097;28;20457;-75
2023/04/20 01:40:02;;;;;;;5.75;4.63;;;8.70;99.90;;;;;;4998916;28;20061;-75
2023/04/20 01:42:29;;;;;;;6.68;4.30;;;8.70;99.90;;;;;;5001298;28;20149;-75
2023/04/20 01:44:56;;;;;;;5.35;4.28;;;8.70;99.90;;;;;;5003275;28;20054;-75
2023/04/20 01:47:23;;;;;;;6.38;4.57;;;8.70;99.90;;;;;;5010883;28;20123;-75
2023/04/20 01:49:49;;;;;;;5.60;4.40;;;8.60;99.90;;;;;;5006487;28;20052;-75
2023/04/20 01:52:16;;;;;;;6.40;4.40;;;8.60;99.90;;;;;;5004607;28;20050;-75
2023/04/20 01:54:43;;;;;;;7.82;4.47;;;8.60;99.90;;;;;;5010813;28;20052;-75
2023/04/20 01:57:09;;;;;;;8.90;5.47;;;8.60;99.90;;;;;;5007043;28;20125;-75
2023/04/20 01:59:36;;;;;;;6.93;4.63;;;8.60;99.90;;;;;;5008769;28;20050;-75
2023/04/20 02:02:03;;;;;;;5.10;4.18;;;8.60;99.90;;;;;;5002033;28;20089;-75
2023/04/20 02:04:29;;;;;;;5.85;4.45;;;8.60;99.90;;;;;;5006850;28;20060;-75
2023/04/20 02:06:56;;;;;;;5.50;4.53;;;8.60;99.90;;;;;;5001485;28;20050;-75
2023/04/20 02:09:23;;;;;;;5.78;4.70;;;8.60;99.90;;;;;;5005128;28;20069;-75
2023/04/20 02:11:50;;;;;;;8.18;4.57;;;8.60;99.90;;;;;;4999650;28;20133;-75
2023/04/20 02:14:16;;;;;;;6.70;4.38;;;8.60;99.90;;;;;;4997906;28;20483;-75
2023/04/20 02:16:43;;;;;;;5.13;4.40;;;8.60;99.90;;;;;;5000334;28;20054;-74
2023/04/20 02:19:10;;;;;;;6.18;4.38;;;8.60;99.90;;;;;;4996379;28;20061;-75
2023/04/20 02:21:36;;;;;;;7.68;4.93;;;8.60;99.90;;;;;;5005087;28;20520;-75
2023/04/20 02:24:04;;;;;;;6.22;4.38;;;8.60;99.90;;;;;;4998835;28;20061;-74
2023/04/20 02:26:30;;;;;;;5.65;4.57;;;8.60;99.90;;;;;;5002706;28;20049;-75
2023/04/20 02:28:57;;;;;;;6.28;4.82;;;8.60;99.90;;;;;;5000621;28;20137;-75
2023/04/20 02:31:24;;;;;;;5.88;4.97;;;8.60;99.90;;;;;;5006508;28;20080;-76
2023/04/20 02:33:51;;;;;;;6.03;4.78;;;8.60;99.90;;;;;;5005959;28;20046;-75
2023/04/20 02:36:17;;;;;;;7.65;5.05;;;8.60;99.90;;;;;;5003934;28;20466;-75
2023/04/20 02:38:50;;;;;;;8.32;5.38;;;8.50;99.90;;;;;;5057201;28;20387;-77
2023/04/20 02:41:17;;;;;;;6.85;4.93;;;8.50;99.90;;;;;;5053949;28;20509;-75
2023/04/20 02:43:44;;;;;;;6.07;5.43;;;8.60;99.90;;;;;;5053076;28;20429;-75
2023/04/20 02:46:11;;;;;;;6.60;4.93;;;8.60;99.90;;;;;;5057623;28;20083;-75
2023/04/20 02:48:37;;;;;;;7.63;5.00;;;8.50;99.90;;;;;;5055506;28;20063;-76
2023/04/20 02:51:04;;;;;;;6.95;5.10;;;8.50;99.90;;;;;;5053815;28;20056;-75
2023/04/20 02:53:31;;;;;;;6.95;5.78;;;8.50;99.90;;;;;;5066519;28;20041;-75
2023/04/20 02:55:57;;;;;;;7.60;5.45;;;8.50;99.90;;;;;;5065546;28;20084;-76
2023/04/20 02:58:24;;;;;;;5.80;4.97;;;8.50;99.90;;;;;;5064463;28;20388;-75
2023/04/20 03:00:51;;;;;;;6.80;5.00;;;8.50;99.90;;;;;;5063972;28;20460;-75
2023/04/20 03:03:19;;;;;;;5.78;4.90;;;8.50;99.90;;;;;;5061232;28;20081;-75
2023/04/20 03:05:47;;;;;;;10.25;5.55;;;8.40;99.90;;;;;;5062031;28;20116;-74
2023/04/20 03:08:13;;;;;;;6.28;5.40;;;8.40;99.90;;;;;;5058217;28;20139;-75
2023/04/20 03:10:40;;;;;;;7.05;5.78;;;8.40;99.90;;;;;;5059885;28;20056;-75
2023/04/20 03:13:07;;;;;;;7.35;6.00;;;8.40;99.90;;;;;;5056457;28;20049;-74
2023/04/20 03:15:33;;;;;;;7.97;6.90;;;8.40;99.90;;;;;;5056649;28;20055;-76
2023/04/20 03:18:00;;;;;;;9.23;6.68;;;8.40;99.90;;;;;;5052682;28;20045;-75
2023/04/20 03:20:27;;;;;;;7.70;6.15;;;8.40;99.90;;;;;;5056241;28;20511;-75
2023/04/20 03:22:54;;;;;;;10.68;6.57;;;8.40;99.90;;;;;;5050733;28;20464;-78
2023/04/20 03:25:20;;;;;;;9.85;6.90;;;8.40;99.90;;;;;;5053616;28;20132;-74
2023/04/20 03:27:47;;;;;;;8.75;7.18;;;8.40;99.90;;;;;;5054313;28;20055;-75
2023/04/20 03:30:14;;;;;;;11.25;7.05;;;8.40;99.90;;;;;;5065836;28;20131;-75
2023/04/20 03:32:41;;;;;;;6.82;5.57;;;8.40;99.90;;;;;;5064405;28;20423;-74
2023/04/20 03:35:08;;;;;;;10.43;6.20;;;8.40;99.90;;;;;;5063507;28;20139;-74
2023/04/20 03:37:38;;;;;;;9.02;6.07;;;8.40;99.90;;;;;;5062017;28;20132;-75
2023/04/20 03:40:08;;;;;;;8.40;6.70;;;8.40;99.90;;;;;;5059144;28;20500;-74
2023/04/20 03:42:36;;;;;;;9.80;6.35;;;8.40;99.90;;;;;;5050147;28;20041;-75
2023/04/20 03:45:05;;;;;;;7.43;5.90;;;8.30;99.90;;;;;;5056775;28;20084;-75
2023/04/20 03:47:32;;;;;;;9.93;6.30;;;8.30;99.90;;;;;;5053216;28;20049;-75
2023/04/20 03:49:58;;;;;;;7.78;6.25;;;8.30;99.90;;;;;;5044610;28;20049;-75
2023/04/20 03:52:25;;;;;;;8.25;6.63;;;8.30;99.90;;;;;;5041054;28;20409;-75
2023/04/20 03:54:52;;;;;;;10.98;6.55;;;8.30;99.90;;;;;;5040850;28;20084;-75
2023/04/20 03:57:19;;;;;;;7.75;6.60;;;8.30;99.90;;;;;;5040174;28;20056;-74
2023/04/20 03:59:45;;;;;;;11.80;8.18;;;8.20;99.90;;;;;;5038404;28;20048;-75
2023/04/20 04:02:12;;;;;;;10.60;8.48;;;8.20;99.90;;;;;;5041499;28;20572;-74
2023/04/20 04:04:39;;;;;;;9.40;7.70;;;8.20;99.90;;;;;;5044700;28;20051;-75
2023/04/20 04:07:07;;;;;;;9.70;7.72;;;8.20;99.90;;;;;;5048421;28;20508;-75
2023/04/20 04:09:33;;;;;;;10.55;7.63;;;8.20;99.90;;;;;;5046694;28;20059;-75
2023/04/20 04:12:00;;;;;;;13.18;9.77;;;8.20;99.90;;;;;;5044680;28;20139;-74
2023/04/20 04:14:29;;;;;;;15.80;10.15;;;8.20;99.90;;;;;;5047998;28;20151;-75
2023/04/20 04:16:55;;;;;;;11.90;9.50;;;8.20;99.90;;;;;;5043987;28;20051;-77
2023/04/20 04:19:22;;;;;;;11.80;9.32;;;8.20;99.90;;;;;;5042788;28;20112;-76
2023/04/20 04:21:49;;;;;;;11.30;8.55;;;8.20;99.90;;;;;;5043173;28;20071;-75
2023/04/20 04:24:16;;;;;;;12.02;9.55;;;8.20;99.90;;;;;;5041573;28;20136;-75
2023/04/20 04:26:44;;;;;;;10.75;7.72;;;8.20;99.90;;;;;;5045864;28;20165;-75
2023/04/20 04:29:11;;;;;;;10.38;7.50;;;8.20;99.90;;;;;;5050396;28;20054;-74
2023/04/20 04:31:37;;;;;;;11.18;7.50;;;8.20;99.90;;;;;;5043806;28;20045;-75
2023/04/20 04:34:04;;;;;;;10.70;7.68;;;8.20;99.90;;;;;;5037043;28;20052;-76
2023/04/20 04:36:31;;;;;;;9.57;6.35;;;8.20;99.90;;;;;;5045114;28;20084;-74
2023/04/20 04:38:58;;;;;;;11.48;6.43;;;8.20;99.90;;;;;;5048083;28;20045;-75
2023/04/20 04:41:24;;;;;;;10.23;6.57;;;8.20;99.90;;;;;;5050836;28;20083;-75
2023/04/20 04:43:52;;;;;;;7.72;5.82;;;8.20;99.90;;;;;;5047511;28;20144;-76
2023/04/20 04:46:19;;;;;;;9.48;6.38;;;8.20;99.90;;;;;;5041045;28;20054;-77
2023/04/20 04:48:46;;;;;;;7.50;5.30;;;8.20;99.90;;;;;;5046832;28;20084;-76
2023/04/20 04:51:13;;;;;;;9.77;5.72;;;8.20;99.90;;;;;;5042290;28;20144;-76
2023/04/20 04:53:43;;;;;;;9.85;5.47;;;8.20;99.90;;;;;;5045671;28;20075;-77
2023/04/20 04:56:12;;;;;;;6.57;5.40;;;8.20;99.90;;;;;;5042931;28;20456;-76
2023/04/20 04:58:38;;;;;;;7.32;5.93;;;8.20;99.90;;;;;;5042461;28;20075;-77
2023/04/20 05:01:05;;;;;;;8.40;5.57;;;8.20;99.90;;;;;;5042424;28;20069;-76
2023/04/20 05:03:32;;;;;;;8.85;5.80;;;8.20;99.90;;;;;;5041025;28;20041;-75
2023/04/20 05:05:59;;;;;;;8.75;5.32;;;8.10;99.90;;;;;;5044312;28;20055;-76
2023/04/20 05:08:25;;;;;;;7.45;5.30;;;8.10;99.90;;;;;;5043883;28;20060;-76
2023/04/20 05:10:52;;;;;;;8.50;5.68;;;7.90;99.90;;;;;;5043257;28;20152;-76
2023/04/20 05:13:19;;;;;;;8.35;6.32;;;7.90;99.90;;;;;;5040326;28;20140;-76
2023/04/20 05:15:45;;;;;;;8.13;5.40;;;7.90;99.90;;;;;;5046986;28;20133;-76
2023/04/20 05:18:12;;;;;;;9.48;5.70;;;7.80;99.90;;;;;;5049532;28;20084;-76
2023/04/20 05:20:39;;;;;;;9.95;5.85;;;7.70;99.90;;;;;;5041869;28;20124;-76
2023/04/20 05:23:06;;;;;;;10.65;5.97;;;7.80;99.90;;;;;;5047103;28;20077;-76
2023/04/20 05:25:32;;;;;;;7.45;5.60;;;7.80;99.90;;;;;;5046107;28;20504;-76
2023/04/20 05:27:59;;;;;;;6.68;5.55;;;7.90;99.90;;;;;;5044086;28;20053;-76
2023/04/20 05:30:26;;;;;;;8.55;5.18;;;7.80;99.90;;;;;;5045364;28;20081;-76
2023/04/20 05:32:53;;;;;;;7.93;5.32;;;7.80;99.90;;;;;;5041889;28;20135;-76
2023/04/20 05:35:20;;;;;;;6.97;5.25;;;7.80;99.90;;;;;;5044321;28;20456;-76
2023/04/20 05:37:47;;;;;;;7.68;5.43;;;7.80;99.90;;;;;;5036867;28;20049;-76
2023/04/20 05:40:14;;;;;;;8.93;5.38;;;7.70;99.90;;;;;;5052585;22;20048;-78
2023/04/20 05:42:41;;;;;;;9.98;5.32;;;7.80;99.90;;;;;;5015073;28;20042;-80
2023/04/20 05:45:09;;;;;;;12.07;5.53;;;7.80;99.90;;;;;;5025066;28;20103;-81
2023/04/20 05:47:35;;;;;;;9.43;5.28;;;7.80;99.90;;;;;;5020576;28;20120;-79
2023/04/20 05:50:03;;;;;;;7.10;5.38;;;7.80;99.90;;;;;;5028160;28;20588;-78
2023/04/20 05:52:29;;;;;;;8.55;5.45;;;7.80;99.90;;;;;;5016756;28;20056;-80
2023/04/20 05:54:56;;;;;;;8.60;5.35;;;7.80;99.90;;;;;;5016218;28;20561;-81
2023/04/20 05:57:23;;;;;;;7.15;5.10;;;7.80;99.90;;;;;;5005547;28;20609;-77
2023/04/20 05:59:50;;;;;;;15.55;7.97;;;7.70;99.90;;;;;;5016613;28;20092;-77
2023/04/20 06:02:17;;;;;;;10.75;6.97;;;7.70;99.90;;;;;;5014613;28;20136;-78
2023/04/20 06:04:44;;;;;;;12.15;7.22;;;7.60;99.90;;;;;;5015002;28;20410;-78
2023/04/20 06:07:11;;;;;;;10.88;5.60;;;7.70;99.90;;;;;;5013761;28;20042;-80
2023/04/20 06:09:38;;;;;;;10.32;6.25;;;7.80;99.90;;;;;;5030997;28;20041;-80
2023/04/20 06:12:04;;;;;;;7.95;6.25;;;7.80;99.90;;;;;;5013952;28;20137;-78
2023/04/20 06:14:31;;;;;;;9.55;6.45;;;7.80;99.90;;;;;;5016642;28;20136;-79
2023/04/20 06:16:58;;;;;;;8.32;6.07;;;7.80;99.90;;;;;;5013328;28;20056;-77
2023/04/20 06:19:24;;;;;;;10.95;6.13;;;7.80;99.90;;;;;;5032728;28;20050;-78
2023/04/20 06:21:51;;;;;;;8.25;6.15;;;7.70;99.90;;;;;;5014796;28;20077;-78
2023/04/20 06:24:18;;;;;;;7.78;5.88;;;7.70;99.90;;;;;;5017603;28;20050;-77
2023/04/20 06:26:44;;;;;;;10.13;6.50;;;7.50;99.90;;;;;;5032386;28;20509;-77
2023/04/20 06:29:11;;;;;;;10.32;6.32;;;7.50;99.90;;;;;;5027957;28;20516;-77
2023/04/20 06:31:38;;;;;;;10.77;6.90;;;7.50;99.90;;;;;;5010532;28;20052;-79
2023/04/20 06:34:04;;;;;;;8.98;6.28;;;7.50;99.90;;;;;;5028815;28;20075;-79
2023/04/20 06:36:31;;;;;;;11.15;6.68;;;7.50;99.90;;;;;;5012342;28;20050;-81
2023/04/20 06:38:58;;;;;;;11.98;6.60;;;7.50;99.90;;;;;;5014142;28;20133;-80
2023/04/20 06:41:25;;;;;;;7.97;5.85;;;7.50;99.90;;;;;;5015552;28;20536;-77
2023/04/20 06:43:51;;;;;;;12.88;5.70;;;7.50;99.90;;;;;;5013672;28;20089;-78
2023/04/20 06:46:18;;;;;;;7.53;5.43;;;7.50;99.90;;;;;;5014449;28;20137;-79
2023/04/20 06:48:45;;;;;;;11.43;5.53;;;7.50;99.90;;;;;;5015450;28;20054;-80
2023/04/20 06:51:12;;;;;;;7.07;5.03;;;7.50;99.90;;;;;;5015605;28;20054;-79
2023/04/20 06:53:39;;;;;;;8.27;5.28;;;7.50;99.90;;;;;;5015001;28;20272;-78
2023/04/20 06:56:06;;;;;;;10.98;6.07;;;7.60;99.90;;;;;;5011889;28;20081;-79
2023/04/20 06:58:33;;;;;;;9.73;4.97;;;7.50;99.90;;;;;;5013542;28;20056;-78
2023/04/20 07:01:00;;;;;;;7.03;5.50;;;7.60;99.90;;;;;;5012235;28;20046;-79
2023/04/20 07:03:27;;;;;;;9.43;6.20;;;7.60;99.90;;;;;;5028002;28;20133;-78
2023/04/20 07:05:54;;;;;;;11.27;5.60;;;7.60;99.90;;;;;;5010845;28;20525;-78
2023/04/20 07:08:21;;;;;;;10.15;6.15;;;7.70;99.90;;;;;;5013340;28;20132;-79
2023/04/20 07:10:48;;;;;;;9.63;6.05;;;7.70;99.90;;;;;;5010292;28;20073;-79
2023/04/20 07:13:15;;;;;;;13.77;6.20;;;7.70;99.90;;;;;;5006140;28;20135;-79
2023/04/20 07:15:44;;;;;;;9.27;6.43;;;7.60;99.90;;;;;;5026392;28;20054;-78
2023/04/20 07:18:10;;;;;;;10.80;5.75;;;7.60;99.90;;;;;;5012770;28;20077;-78
2023/04/20 07:20:37;;;;;;;7.00;5.57;;;7.70;99.90;;;;;;5029030;28;20502;-79
2023/04/20 07:23:04;;;;;;;10.45;5.15;;;7.70;99.90;;;;;;5012348;28;20081;-79
2023/04/20 07:25:31;;;;;;;7.88;5.28;;;7.80;99.90;;;;;;5016384;28;20082;-78
2023/04/20 07:27:58;;;;;;;6.70;5.63;;;7.80;99.90;;;;;;5016820;28;20041;-79
2023/04/20 07:30:25;;;;;;;8.98;4.97;;;7.80;99.90;;;;;;5014430;28;20169;-78
2023/04/20 07:32:52;;;;;;;9.63;6.38;;;7.80;99.90;;;;;;5016894;28;20042;-77
2023/04/20 07:35:19;;;;;;;7.32;5.65;;;7.90;99.90;;;;;;5013869;28;20497;-78
2023/04/20 07:37:46;;;;;;;8.57;5.90;;;8.10;99.90;;;;;;5015875;28;20080;-78
2023/04/20 07:40:13;;;;;;;9.57;5.43;;;8.10;99.90;;;;;;5012703;28;20073;-79
2023/04/20 07:42:40;;;;;;;10.98;6.28;;;8.10;99.90;;;;;;5015906;28;20108;-78
2023/04/20 07:45:08;;;;;;;9.60;5.85;;;8.20;99.90;;;;;;5016410;28;20129;-78
2023/04/20 07:47:35;;;;;;;10.10;5.50;;;7.90;99.90;;;;;;5015107;28;20106;-78
2023/04/20 07:50:03;;;;;;;9.02;5.30;;;8.00;99.90;;;;;;5015685;28;20050;-79
2023/04/20 07:52:30;;;;;;;7.13;5.70;;;7.80;99.90;;;;;;5030499;28;20054;-80
2023/04/20 07:54:58;;;;;;;9.27;5.80;;;7.90;99.90;;;;;;5012680;28;20049;-78
2023/04/20 07:57:25;;;;;;;8.82;5.85;;;7.80;99.90;;;;;;5011840;28;20112;-79
2023/04/20 07:59:52;;;;;;;11.77;5.80;;;7.90;99.90;;;;;;5014907;28;20045;-79
2023/04/20 08:02:19;;;;;;;8.15;6.30;;;7.90;99.90;;;;;;5005304;28;20145;-79
2023/04/20 08:04:47;;;;;;;9.27;5.65;;;7.80;99.90;;;;;;5014652;28;20049;-78
2023/04/20 08:07:14;;;;;;;6.70;5.38;;;7.90;99.90;;;;;;5014979;28;20489;-79
2023/04/20 08:09:41;;;;;;;9.18;5.88;;;8.00;99.90;;;;;;5031620;28;20052;-79
2023/04/20 08:12:08;;;;;;;10.25;5.50;;;8.10;99.90;;;;;;5016575;28;20136;-79
2023/04/20 08:14:34;;;;;;;11.10;6.63;;;8.20;99.90;;;;;;5013914;28;20084;-78
2023/04/20 08:17:01;;;;;;;9.23;6.47;;;8.30;99.90;;;;;;5010814;28;20125;-79
2023/04/20 08:19:28;;;;;;;11.77;6.20;;;8.40;99.90;;;;;;5016592;28;20078;-82
2023/04/20 08:21:55;;;;;;;8.25;5.72;;;8.40;99.90;;;;;;5012761;28;20042;-78
2023/04/20 08:24:21;;;;;;;7.13;5.20;;;8.40;99.90;;;;;;5016035;28;20081;-81
2023/04/20 08:26:48;;;;;;;9.65;5.55;;;8.40;99.90;;;;;;5015090;28;20072;-79
2023/04/20 08:29:15;;;;;;;11.70;6.53;;;8.50;99.90;;;;;;5016254;28;20096;-79
2023/04/20 08:31:41;;;;;;;8.85;5.57;;;8.60;99.90;;;;;;5015467;28;20045;-78
2023/04/20 08:34:08;;;;;;;12.77;6.00;;;8.60;99.90;;;;;;5018865;28;20119;-78
2023/04/20 08:36:35;;;;;;;10.07;5.55;;;8.60;99.90;;;;;;5018054;28;20105;-79
2023/04/20 08:39:10;;;;;;;13.10;6.25;;;8.70;99.90;;;;;;5018146;28;20046;-78
2023/04/20 08:41:37;;;;;;;11.52;6.00;;;8.70;99.90;;;;;;5030181;28;20064;-79
2023/04/20 08:44:05;;;;;;;11.25;6.03;;;8.70;99.90;;;;;;5015725;28;20049;-78
2023/04/20 08:46:33;;;;;;;9.10;5.75;;;8.70;99.90;;;;;;5029143;28;20569;-79
2023/04/20 08:49:03;;;;;;;7.65;5.82;;;8.80;99.90;;;;;;5030137;28;20073;-80
2023/04/20 08:51:31;;;;;;;11.00;7.82;;;8.80;99.90;;;;;;5016767;28;20084;-80
2023/04/20 08:54:04;;;;;;;9.73;6.90;;;8.80;99.90;;;;;;5016104;28;20050;-80
2023/04/20 08:56:37;;;;;;;9.68;6.70;;;8.80;99.90;;;;;;5009799;28;20540;-80
2023/04/20 08:59:04;;;;;;;11.00;6.40;;;8.80;99.90;;;;;;5013702;28;20081;-79
2023/04/20 09:01:32;;;;;;;10.95;6.95;;;8.90;99.90;;;;;;5014456;28;20046;-78
2023/04/20 09:04:15;;;;;;;7.43;6.07;;;8.90;99.90;;;;;;5016077;28;20468;-79
2023/04/20 09:06:49;;;;;;;10.32;7.00;;;8.90;99.90;;;;;;5009201;28;20111;-79
2023/04/20 09:09:17;;;;;;;12.65;7.53;;;8.90;99.90;;;;;;5011103;28;20399;-79
2023/04/20 09:11:44;;;;;;;11.02;6.93;;;8.90;99.90;;;;;;5011896;28;20073;-78
2023/04/20 09:14:14;;;;;;;9.43;6.78;;;8.90;99.90;;;;;;5025593;28;20148;-80
2023/04/20 09:16:49;;;;;;;10.80;6.72;;;8.90;99.90;;;;;;5009721;28;20054;-78
2023/04/20 09:19:23;;;;;;;8.82;6.97;;;9.00;99.90;;;;;;5009368;28;20077;-78
2023/04/20 09:21:52;;;;;;;11.02;7.10;;;9.00;99.90;;;;;;5014014;28;20046;-80
2023/04/20 09:24:29;;;;;;;12.43;7.55;;;9.00;99.90;;;;;;5010767;28;20125;-78
2023/04/20 09:26:56;;;;;;;9.30;7.03;;;9.10;99.90;;;;;;5032093;28;20048;-80
2023/04/20 09:29:26;;;;;;;11.73;7.50;;;9.20;99.90;;;;;;5013293;28;20664;-79
2023/04/20 09:31:53;;;;;;;12.80;7.32;;;9.30;99.90;;;;;;5031079;28;20052;-80
2023/04/20 09:34:22;;;;;;;9.32;6.60;;;9.30;99.90;;;;;;5015606;28;20053;-79
2023/04/20 09:36:53;;;;;;;13.52;7.22;;;9.40;99.90;;;;;;5013928;28;20060;-80
2023/04/20 09:39:21;;;;;;;12.05;7.50;;;9.50;99.90;;;;;;5014160;28;20494;-79
2023/04/20 09:41:50;;;;;;;13.77;7.65;;;9.60;99.90;;;;;;5029183;28;20453;-79
2023/04/20 09:44:18;;;;;;;11.93;8.05;;;9.70;99.90;;;;;;5014974;28;20084;-79
2023/04/20 09:46:45;;;;;;;12.02;7.75;;;9.80;99.90;;;;;;5002539;28;20445;-80
2023/04/20 09:49:13;;;;;;;11.45;9.15;;;9.80;99.90;;;;;;5011192;28;20506;-78
2023/04/20 09:51:45;;;;;;;11.93;8.25;;;9.90;99.90;;;;;;5011370;28;20503;-78
2023/04/20 09:54:13;;;;;;;12.68;8.02;;;10.00;99.90;;;;;;5015293;28;20046;-78
2023/04/20 09:56:40;;;;;;;9.55;7.20;;;10.10;99.90;;;;;;5029197;28;20113;-79
2023/04/20 09:59:07;;;;;;;8.57;7.07;;;10.30;99.90;;;;;;5012636;28;20645;-78
2023/04/20 10:01:36;;;;;;;9.80;7.03;;;10.40;99.90;;;;;;5008748;28;20133;-79
2023/04/20 10:04:07;;;;;;;8.02;6.07;;;10.60;99.90;;;;;;5027948;28;20058;-79
2023/04/20 10:06:36;;;;;;;12.93;5.55;;;10.70;99.90;;;;;;5013577;28;20137;-80
2023/04/20 10:09:07;;;;;;;8.65;5.72;;;10.70;99.90;;;;;;5013591;28;20156;-79
2023/04/20 10:11:35;;;;;;;9.50;6.70;;;10.70;99.90;;;;;;5011466;28;20081;-79
2023/04/20 10:14:22;;;;;;;7.28;5.55;;;10.70;99.90;;;;;;5012448;28;20464;-79
2023/04/20 10:17:00;;;;;;;10.63;6.65;;;10.80;99.90;;;;;;5011022;28;20046;-79
2023/04/20 10:19:41;;;;;;;9.68;7.15;;;10.80;99.90;;;;;;5011054;28;20137;-79
2023/04/20 10:22:10;;;;;;;9.50;6.47;;;10.80;99.90;;;;;;5009837;28;20042;-78
2023/04/20 10:24:37;;;;;;;10.07;7.15;;;10.80;99.90;;;;;;5009099;28;20046;-79
2023/04/20 10:27:16;;;;;;;11.45;6.95;;;10.70;99.90;;;;;;5025785;28;20421;-79
2023/04/20 10:29:42;;;;;;;8.73;6.65;;;10.70;99.90;;;;;;5013591;28;20107;-79
2023/04/20 10:32:23;;;;;;;8.55;6.50;;;10.60;99.90;;;;;;5009928;28;20052;-78
2023/04/20 10:35:08;;;;;;;9.82;6.68;;;10.50;99.90;;;;;;5024789;28;20050;-79
2023/04/20 10:37:45;;;;;;;7.85;6.45;;;10.40;99.90;;;;;;5026018;28;20125;-78
2023/04/20 10:40:12;;;;;;;11.73;6.85;;;10.40;99.90;;;;;;5013127;28;20117;-79
2023/04/20 10:42:45;;;;;;;8.60;6.65;;;10.30;99.90;;;;;;5011507;28;20054;-79
2023/04/20 10:45:12;;;;;;;7.18;6.05;;;10.30;99.90;;;;;;5009666;28;20074;-79
2023/04/20 10:47:39;;;;;;;8.57;6.32;;;10.30;99.90;;;;;;5013215;28;20092;-80
2023/04/20 10:50:15;;;;;;;10.23;6.80;;;10.40;99.90;;;;;;5013608;28;20046;-78
2023/04/20 10:52:43;;;;;;;8.02;5.45;;;10.40;99.90;;;;;;5011253;28;20050;-80
2023/04/20 10:55:24;;;;;;;8.05;5.82;;;10.40;99.90;;;;;;5027018;28;20046;-79
2023/04/20 10:57:52;;;;;;;7.50;5.63;;;10.40;99.90;;;;;;5012791;28;20113;-81
2023/04/20 11:00:25;;;;;;;8.27;5.60;;;10.50;99.90;;;;;;5009059;28;20042;-80
2023/04/20 11:02:55;;;;;;;7.28;5.45;;;10.50;99.90;;;;;;5029635;28;20646;-79
2023/04/20 11:05:23;;;;;;;6.18;4.45;;;10.60;99.90;;;;;;5031553;28;20037;-80
2023/04/20 11:07:57;;;;;;;5.35;4.45;;;10.70;99.90;;;;;;5031200;28;20485;-80
2023/04/20 11:10:39;;;;;;;5.57;4.63;;;10.70;99.90;;;;;;5028248;28;20132;-79
2023/04/20 11:13:17;;;;;;;5.38;4.28;;;10.70;99.90;;;;;;5010061;28;20132;-80
2023/04/20 11:15:44;;;;;;;6.88;4.60;;;10.70;99.90;;;;;;5016614;28;20340;-80
2023/04/20 11:18:11;;;;;;;8.40;4.97;;;10.80;99.90;;;;;;5015208;28;20141;-79
2023/04/20 11:20:52;;;;;;;6.15;4.25;;;10.80;99.90;;;;;;5016272;28;20076;-77
2023/04/20 11:23:21;;;;;;;5.32;4.43;;;10.80;99.90;;;;;;5006766;28;20069;-76
2023/04/20 11:25:52;;;;;;;4.90;4.28;;;10.90;99.90;;;;;;5013919;28;20085;-79
2023/04/20 11:28:19;;;;;;;6.45;4.40;;;11.00;99.90;;;;;;5009337;28;20049;-78
2023/04/20 11:30:48;;;;;;;5.57;3.97;;;11.00;99.90;;;;;;5013586;28;20061;-78
2023/04/20 11:33:24;;;;;;;4.03;3.40;;;11.10;99.90;;;;;;5013785;28;20088;-79
2023/04/20 11:35:51;;;;;;;4.82;3.72;;;11.10;99.90;;;;;;5012297;28;20053;-78
2023/04/20 11:38:33;;;;;;;4.07;3.40;;;11.10;99.90;;;;;;5010213;28;20322;-78
2023/04/20 11:41:06;;;;;;;3.88;3.17;;;11.20;99.90;;;;;;5012879;28;20490;-78
2023/04/20 11:43:34;;;;;;;3.03;2.75;;;11.20;99.90;;;;;;5011790;28;20038;-79
2023/04/20 11:46:01;;;;;;;5.47;2.78;;;11.30;99.90;;;;;;5012511;28;20121;-78
2023/04/20 11:48:31;;;;;;;3.60;2.85;;;11.40;99.90;;;;;;5011993;28;20616;-80
2023/04/20 11:50:58;;;;;;;3.45;3.15;;;11.50;99.90;;;;;;5012687;28;20042;-78
2023/04/20 11:53:25;;;;;;;3.88;2.70;;;11.50;99.90;;;;;;5030995;28;20053;-78
2023/04/20 11:55:52;;;;;;;3.20;2.45;;;11.60;99.90;;;;;;5015988;28;20046;-79
2023/04/20 11:58:19;;;;;;;2.50;2.30;;;11.70;99.90;;;;;;5011776;28;20076;-81
2023/04/20 12:00:45;;;;;;;2.90;2.10;;;11.70;99.90;;;;;;5016542;28;20117;-79
2023/04/20 12:03:12;;;;;;;2.75;2.35;;;11.80;99.90;;;;;;5018351;28;20081;-79
2023/04/20 12:05:39;;;;;;;2.92;1.80;;;11.90;99.90;;;;;;5017257;28;20506;-80
2023/04/20 12:08:07;;;;;;;2.60;1.90;;;12.00;99.90;;;;;;5012812;28;20461;-80
2023/04/20 12:10:34;;;;;;;2.83;2.25;;;12.10;99.90;;;;;;5015852;28;20132;-80
2023/04/20 12:13:00;;;;;;;3.25;1.88;;;12.20;99.90;;;;;;5015434;28;20056;-80
2023/04/20 12:15:27;;;;;;;2.90;2.70;;;12.30;99.90;;;;;;5017681;28;20045;-80
2023/04/20 12:17:54;;;;;;;4.68;2.80;;;12.30;99.90;;;;;;5013761;28;20051;-79
2023/04/20 12:20:21;;;;;;;2.75;2.30;;;12.30;99.90;;;;;;5016599;28;20207;-78
2023/04/20 12:22:48;;;;;;;3.17;2.67;;;12.40;99.90;;;;;;5015699;28;20050;-79
2023/04/20 12:25:15;;;;;;;2.97;1.95;;;12.40;99.90;;;;;;5017162;28;20537;-79
2023/04/20 12:27:41;;;;;;;2.88;1.80;;;12.40;99.90;;;;;;5017508;28;20081;-80
2023/04/20 12:30:09;;;;;;;1.17;1.05;;;12.50;99.90;;;;;;5018004;28;20041;-79
2023/04/20 12:32:35;;;;;;;1.20;1.02;;;12.60;99.90;;;;;;5016386;28;20109;-80
2023/04/20 12:35:02;;;;;;;1.13;1.00;;;12.70;99.90;;;;;;5016729;28;20132;-78
2023/04/20 12:37:29;;;;;;;2.30;1.67;;;12.70;99.90;;;;;;5017913;28;20114;-80
2023/04/20 12:39:56;;;;;;;0.88;0.82;;;12.80;99.90;;;;;;5016489;28;20490;-79
2023/04/20 12:42:23;;;;;;;1.20;0.90;;;12.80;99.90;;;;;;5012991;28;20123;-79
2023/04/20 12:44:53;;;;;;;1.08;0.80;;;12.80;99.90;;;;;;5018044;28;20150;-79
2023/04/20 12:47:19;;;;;;;0.93;0.82;;;12.80;99.90;;;;;;5033372;28;20042;-79
2023/04/20 12:49:46;;;;;;;0.70;0.70;;;12.80;99.90;;;;;;5019518;28;20473;-80
2023/04/20 12:52:13;;;;;;;2.47;0.77;;;12.80;99.90;;;;;;5016220;28;20115;-79
2023/04/20 12:54:40;;;;;;;0.77;0.60;;;12.70;99.90;;;;;;5015580;28;20137;-79
2023/04/20 12:57:09;;;;;;;1.00;0.40;;;12.60;99.90;;;;;;5011414;28;20466;-79